sensor_id;sensor_type;location;lat;lon;timestamp;temperature;humidity
22996;DHT22;11664;49.774;8.650;2023-03-20T00:02:20;9.20;99.90
22996;DHT22;11664;49.774;8.650;2023-03-20T00:04:52;9.30;99.90
22996;DHT22;11664;49.774;8.650;2023-03-20T00:07:18;9.30;99.90
22996;DHT22;11664;49.774;8.650;2023-03-20T00:09:43;9.30;99.90
22996;DHT22;11664;49.774;8.650;2023-03-20T00:12:20;9.40;99.90
22996;DHT22;11664;49.774;8.650;2023-03-20T00:14:46;9.50;99.90
22996;DHT22;11664;49.774;8.650;2023-03-20T00:17:18;9.60;99.90
22996;DHT22;11664;49.774;8.650;2023-03-20T00:19:44;9.60;99.90
22996;DHT22;11664;49.774;8.650;2023-03-20T00:22:13;9.70;99.90
22996;DHT22;11664;49.774;8.650;2023-03-20T00:24:42;9.80;99.90
22996;DHT22;11664;49.774;8.650;2023-03-20T00:27:10;9.80;99.90
22996;DHT22;11664;49.774;8.650;2023-03-20T00:29:42;9.80;99.90
22996;DHT22;11664;49.774;8.650;2023-03-20T00:32:12;9.80;99.90
22996;DHT22;11664;49.774;8.650;2023-03-20T00:34:37;9.80;99.90
22996;DHT22;11664;49.774;8.650;2023-03-20T00:37:09;9.80;99.90
22996;DHT22;11664;49.774;8.650;2023-03-20T00:39:35;9.80;99.90
22996;DHT22;11664;49.774;8.650;2023-03-20T00:42:05;9.80;99.90
22996;DHT22;11664;49.774;8.650;2023-03-20T00:44:49;9.80;99.90
22996;DHT22;11664;49.774;8.650;2023-03-20T00:47:25;9.80;99.90
22996;DHT22;11664;49.774;8.650;2023-03-20T00:49:52;9.80;99.90
22996;DHT22;11664;49.774;8.650;2023-03-20T00:52:21;9.90;99.90
22996;DHT22;11664;49.774;8.650;2023-03-20T00:54:52;9.90;99.90
22996;DHT22;11664;49.774;8.650;2023-03-20T00:57:28;10.00;99.90
22996;DHT22;11664;49.774;8.650;2023-03-20T01:00:02;10.00;99.90
22996;DHT22;11664;49.774;8.650;2023-03-20T01:02:35;10.00;99.90
22996;DHT22;11664;49.774;8.650;2023-03-20T01:05:07;10.00;99.90
22996;DHT22;11664;49.774;8.650;2023-03-20T01:07:51;10.00;99.90
22996;DHT22;11664;49.774;8.650;2023-03-20T01:10:17;10.00;99.90
22996;DHT22;11664;49.774;8.650;2023-03-20T01:12:43;10.10;99.90
22996;DHT22;11664;49.774;8.650;2023-03-20T01:15:22;10.10;99.90
22996;DHT22;11664;49.774;8.650;2023-03-20T01:17:49;10.10;99.90
22996;DHT22;11664;49.774;8.650;2023-03-20T01:20:27;10.10;99.90
22996;DHT22;11664;49.774;8.650;2023-03-20T01:22:56;10.10;99.90
22996;DHT22;11664;49.774;8.650;2023-03-20T01:25:41;10.10;99.90
22996;DHT22;11664;49.774;8.650;2023-03-20T01:28:22;10.00;99.90
22996;DHT22;11664;49.774;8.650;2023-03-20T01:30:54;10.10;99.90
22996;DHT22;11664;49.774;8.650;2023-03-20T01:33:22;10.00;99.90
22996;DHT22;11664;49.774;8.650;2023-03-20T01:35:57;10.00;99.90
22996;DHT22;11664;49.774;8.650;2023-03-20T01:38:25;10.00;99.90
22996;DHT22;11664;49.774;8.650;2023-03-20T01:41:14;10.00;99.90
22996;DHT22;11664;49.774;8.650;2023-03-20T01:43:41;10.00;99.90
22996;DHT22;11664;49.774;8.650;2023-03-20T01:51:20;10.00;99.90
22996;DHT22;11664;49.774;8.650;2023-03-20T01:54:32;10.10;99.90
22996;DHT22;11664;49.774;8.650;2023-03-20T01:57:13;10.10;99.90
22996;DHT22;11664;49.774;8.650;2023-03-20T01:59:57;10.10;99.90
22996;DHT22;11664;49.774;8.650;2023-03-20T02:02:29;10.10;99.90
22996;DHT22;11664;49.774;8.650;2023-03-20T02:05:12;10.10;99.90
22996;DHT22;11664;49.774;8.650;2023-03-20T02:07:46;10.10;99.90
22996;DHT22;11664;49.774;8.650;2023-03-20T02:10:23;10.10;99.90
22996;DHT22;11664;49.774;8.650;2023-03-20T02:12:52;10.10;99.90
22996;DHT22;11664;49.774;8.650;2023-03-20T02:15:25;10.10;99.90
22996;DHT22;11664;49.774;8.650;2023-03-20T02:17:57;10.10;99.90
22996;DHT22;11664;49.774;8.650;2023-03-20T02:26:49;10.00;99.90
22996;DHT22;11664;49.774;8.650;2023-03-20T02:29:44;10.00;99.90
22996;DHT22;11664;49.774;8.650;2023-03-20T02:50:46;10.10;99.90
22996;DHT22;11664;49.774;8.650;2023-03-20T02:53:16;10.10;99.90
22996;DHT22;11664;49.774;8.650;2023-03-20T02:56:12;10.10;99.90
22996;DHT22;11664;49.774;8.650;2023-03-20T03:01:43;10.10;99.90
22996;DHT22;11664;49.774;8.650;2023-03-20T03:04:16;10.10;99.90
22996;DHT22;11664;49.774;8.650;2023-03-20T03:07:08;10.20;99.90
22996;DHT22;11664;49.774;8.650;2023-03-20T03:09:59;10.10;99.90
22996;DHT22;11664;49.774;8.650;2023-03-20T03:12:45;10.20;99.90
22996;DHT22;11664;49.774;8.650;2023-03-20T03:15:16;10.10;99.90
22996;DHT22;11664;49.774;8.650;2023-03-20T03:17:46;10.10;99.90
22996;DHT22;11664;49.774;8.650;2023-03-20T03:20:22;10.10;99.90
22996;DHT22;11664;49.774;8.650;2023-03-20T03:22:55;10.10;99.90
22996;DHT22;11664;49.774;8.650;2023-03-20T03:25:23;10.10;99.90
22996;DHT22;11664;49.774;8.650;2023-03-20T03:28:02;10.10;99.90
22996;DHT22;11664;49.774;8.650;2023-03-20T03:30:30;10.20;99.90
22996;DHT22;11664;49.774;8.650;2023-03-20T03:33:13;10.10;99.90
22996;DHT22;11664;49.774;8.650;2023-03-20T03:35:48;10.10;99.90
22996;DHT22;11664;49.774;8.650;2023-03-20T03:38:30;10.10;99.90
22996;DHT22;11664;49.774;8.650;2023-03-20T03:43:59;10.20;99.90
22996;DHT22;11664;49.774;8.650;2023-03-20T03:46:50;10.20;99.90
22996;DHT22;11664;49.774;8.650;2023-03-20T03:49:26;10.10;99.90
22996;DHT22;11664;49.774;8.650;2023-03-20T03:52:15;10.10;99.90
22996;DHT22;11664;49.774;8.650;2023-03-20T03:54:56;10.10;99.90
22996;DHT22;11664;49.774;8.650;2023-03-20T03:57:30;10.10;99.90
22996;DHT22;11664;49.774;8.650;2023-03-20T03:59:57;10.10;99.90
22996;DHT22;11664;49.774;8.650;2023-03-20T04:02:26;10.10;99.90
22996;DHT22;11664;49.774;8.650;2023-03-20T04:04:53;10.20;99.90
22996;DHT22;11664;49.774;8.650;2023-03-20T04:07:19;10.20;99.90
22996;DHT22;11664;49.774;8.650;2023-03-20T04:09:51;10.20;99.90
22996;DHT22;11664;49.774;8.650;2023-03-20T04:12:38;10.20;99.90
22996;DHT22;11664;49.774;8.650;2023-03-20T04:15:05;10.20;99.90
22996;DHT22;11664;49.774;8.650;2023-03-20T04:17:43;10.20;99.90
22996;DHT22;11664;49.774;8.650;2023-03-20T04:20:30;10.20;99.90
22996;DHT22;11664;49.774;8.650;2023-03-20T04:22:56;10.20;99.90
22996;DHT22;11664;49.774;8.650;2023-03-20T04:25:28;10.20;99.90
22996;DHT22;11664;49.774;8.650;2023-03-20T04:28:15;10.20;99.90
22996;DHT22;11664;49.774;8.650;2023-03-20T04:30:55;10.20;99.90
22996;DHT22;11664;49.774;8.650;2023-03-20T04:33:24;10.20;99.90
22996;DHT22;11664;49.774;8.650;2023-03-20T04:35:56;10.20;99.90
22996;DHT22;11664;49.774;8.650;2023-03-20T04:38:22;10.20;99.90
22996;DHT22;11664;49.774;8.650;2023-03-20T04:41:12;10.10;99.90
22996;DHT22;11664;49.774;8.650;2023-03-20T04:43:38;10.20;99.90
22996;DHT22;11664;49.774;8.650;2023-03-20T04:46:13;10.20;99.90
22996;DHT22;11664;49.774;8.650;2023-03-20T04:48:42;10.20;99.90
22996;DHT22;11664;49.774;8.650;2023-03-20T04:51:28;10.20;99.90
22996;DHT22;11664;49.774;8.650;2023-03-20T04:53:54;10.20;99.90
22996;DHT22;11664;49.774;8.650;2023-03-20T04:56:20;10.20;99.90
22996;DHT22;11664;49.774;8.650;2023-03-20T04:58:45;10.20;99.90
22996;DHT22;11664;49.774;8.650;2023-03-20T05:01:17;10.20;99.90
22996;DHT22;11664;49.774;8.650;2023-03-20T05:03:54;10.20;99.90
22996;DHT22;11664;49.774;8.650;2023-03-20T05:06:28;10.20;99.90
22996;DHT22;11664;49.774;8.650;2023-03-20T05:12:16;10.20;99.90
22996;DHT22;11664;49.774;8.650;2023-03-20T05:14:47;10.20;99.90
22996;DHT22;11664;49.774;8.650;2023-03-20T05:17:37;10.10;99.90
22996;DHT22;11664;49.774;8.650;2023-03-20T05:20:06;10.20;99.90
22996;DHT22;11664;49.774;8.650;2023-03-20T05:25:10;10.20;99.90
22996;DHT22;11664;49.774;8.650;2023-03-20T05:27:36;10.20;99.90
22996;DHT22;11664;49.774;8.650;2023-03-20T05:30:08;10.20;99.90
22996;DHT22;11664;49.774;8.650;2023-03-20T05:32:34;10.20;99.90
22996;DHT22;11664;49.774;8.650;2023-03-20T05:35:01;10.20;99.90
22996;DHT22;11664;49.774;8.650;2023-03-20T05:37:29;10.20;99.90
22996;DHT22;11664;49.774;8.650;2023-03-20T05:39:58;10.20;99.90
22996;DHT22;11664;49.774;8.650;2023-03-20T05:42:27;10.20;99.90
22996;DHT22;11664;49.774;8.650;2023-03-20T05:45:07;10.20;99.90
22996;DHT22;11664;49.774;8.650;2023-03-20T05:47:58;10.30;99.90
22996;DHT22;11664;49.774;8.650;2023-03-20T05:50:26;10.30;99.90
22996;DHT22;11664;49.774;8.650;2023-03-20T05:53:17;10.30;99.90
22996;DHT22;11664;49.774;8.650;2023-03-20T05:56:00;10.30;99.90
22996;DHT22;11664;49.774;8.650;2023-03-20T05:58:29;10.30;99.90
22996;DHT22;11664;49.774;8.650;2023-03-20T06:00:56;10.30;99.90
22996;DHT22;11664;49.774;8.650;2023-03-20T06:03:25;10.40;99.90
22996;DHT22;11664;49.774;8.650;2023-03-20T06:05:50;10.30;99.90
22996;DHT22;11664;49.774;8.650;2023-03-20T06:08:22;10.40;99.90
22996;DHT22;11664;49.774;8.650;2023-03-20T06:10:57;10.40;99.90
22996;DHT22;11664;49.774;8.650;2023-03-20T06:13:22;10.40;99.90
22996;DHT22;11664;49.774;8.650;2023-03-20T06:15:57;10.30;99.90
22996;DHT22;11664;49.774;8.650;2023-03-20T06:18:26;10.30;99.90
22996;DHT22;11664;49.774;8.650;2023-03-20T06:21:10;10.40;99.90
22996;DHT22;11664;49.774;8.650;2023-03-20T06:23:38;10.30;99.90
22996;DHT22;11664;49.774;8.650;2023-03-20T06:26:04;10.40;99.90
22996;DHT22;11664;49.774;8.650;2023-03-20T06:28:32;10.30;99.90
22996;DHT22;11664;49.774;8.650;2023-03-20T06:31:07;10.30;99.90
22996;DHT22;11664;49.774;8.650;2023-03-20T06:33:49;10.40;99.90
22996;DHT22;11664;49.774;8.650;2023-03-20T06:36:15;10.40;99.90
22996;DHT22;11664;49.774;8.650;2023-03-20T06:38:40;10.40;99.90
22996;DHT22;11664;49.774;8.650;2023-03-20T06:41:06;10.40;99.90
22996;DHT22;11664;49.774;8.650;2023-03-20T06:43:40;10.40;99.90
22996;DHT22;11664;49.774;8.650;2023-03-20T06:46:10;10.40;99.90
22996;DHT22;11664;49.774;8.650;2023-03-20T06:48:41;10.40;99.90
22996;DHT22;11664;49.774;8.650;2023-03-20T06:51:07;10.40;99.90
22996;DHT22;11664;49.774;8.650;2023-03-20T06:53:35;10.40;99.90
22996;DHT22;11664;49.774;8.650;2023-03-20T06:56:03;10.40;99.90
22996;DHT22;11664;49.774;8.650;2023-03-20T06:58:28;10.40;99.90
22996;DHT22;11664;49.774;8.650;2023-03-20T07:01:14;10.40;99.90
22996;DHT22;11664;49.774;8.650;2023-03-20T07:03:41;10.30;99.90
22996;DHT22;11664;49.774;8.650;2023-03-20T07:06:10;10.30;99.90
22996;DHT22;11664;49.774;8.650;2023-03-20T07:08:42;10.40;99.90
22996;DHT22;11664;49.774;8.650;2023-03-20T07:11:07;10.40;99.90
22996;DHT22;11664;49.774;8.650;2023-03-20T07:13:34;10.30;99.90
22996;DHT22;11664;49.774;8.650;2023-03-20T07:16:00;10.30;99.90
22996;DHT22;11664;49.774;8.650;2023-03-20T07:18:32;10.30;99.90
22996;DHT22;11664;49.774;8.650;2023-03-20T07:21:00;10.30;99.90
22996;DHT22;11664;49.774;8.650;2023-03-20T07:23:27;10.30;99.90
22996;DHT22;11664;49.774;8.650;2023-03-20T07:25:52;10.30;99.90
22996;DHT22;11664;49.774;8.650;2023-03-20T07:28:18;10.40;99.90
22996;DHT22;11664;49.774;8.650;2023-03-20T07:30:46;10.40;99.90
22996;DHT22;11664;49.774;8.650;2023-03-20T07:33:12;10.40;99.90
22996;DHT22;11664;49.774;8.650;2023-03-20T07:35:37;10.30;99.90
22996;DHT22;11664;49.774;8.650;2023-03-20T07:38:22;10.40;99.90
22996;DHT22;11664;49.774;8.650;2023-03-20T07:40:48;10.40;99.90
22996;DHT22;11664;49.774;8.650;2023-03-20T07:43:23;10.40;99.90
22996;DHT22;11664;49.774;8.650;2023-03-20T07:45:51;10.50;99.90
22996;DHT22;11664;49.774;8.650;2023-03-20T07:48:20;10.50;99.90
22996;DHT22;11664;49.774;8.650;2023-03-20T07:50:48;10.50;99.90
22996;DHT22;11664;49.774;8.650;2023-03-20T07:53:32;10.50;99.90
22996;DHT22;11664;49.774;8.650;2023-03-20T07:56:01;10.60;99.90
22996;DHT22;11664;49.774;8.650;2023-03-20T07:58:29;10.50;99.90
22996;DHT22;11664;49.774;8.650;2023-03-20T08:00:58;10.50;99.90
22996;DHT22;11664;49.774;8.650;2023-03-20T08:03:29;10.60;99.90
22996;DHT22;11664;49.774;8.650;2023-03-20T08:06:02;10.60;99.90
22996;DHT22;11664;49.774;8.650;2023-03-20T08:08:36;10.60;99.90
22996;DHT22;11664;49.774;8.650;2023-03-20T08:11:12;10.60;99.90
22996;DHT22;11664;49.774;8.650;2023-03-20T08:13:44;10.60;99.90
22996;DHT22;11664;49.774;8.650;2023-03-20T08:16:09;10.50;99.90
22996;DHT22;11664;49.774;8.650;2023-03-20T08:18:44;10.60;99.90
22996;DHT22;11664;49.774;8.650;2023-03-20T08:21:12;10.50;99.90
22996;DHT22;11664;49.774;8.650;2023-03-20T08:23:38;10.50;99.90
22996;DHT22;11664;49.774;8.650;2023-03-20T08:26:04;10.50;99.90
22996;DHT22;11664;49.774;8.650;2023-03-20T08:28:29;10.50;99.90
22996;DHT22;11664;49.774;8.650;2023-03-20T08:31:01;10.50;99.90
22996;DHT22;11664;49.774;8.650;2023-03-20T08:33:29;10.50;99.90
22996;DHT22;11664;49.774;8.650;2023-03-20T08:35:58;10.60;99.90
22996;DHT22;11664;49.774;8.650;2023-03-20T08:38:26;10.60;99.90
22996;DHT22;11664;49.774;8.650;2023-03-20T08:40:52;10.60;99.90
22996;DHT22;11664;49.774;8.650;2023-03-20T08:43:19;10.60;99.90
22996;DHT22;11664;49.774;8.650;2023-03-20T08:45:47;10.70;99.90
22996;DHT22;11664;49.774;8.650;2023-03-20T08:48:13;10.70;99.90
22996;DHT22;11664;49.774;8.650;2023-03-20T08:50:42;10.70;99.90
22996;DHT22;11664;49.774;8.650;2023-03-20T08:53:09;10.80;99.90
22996;DHT22;11664;49.774;8.650;2023-03-20T08:55:37;10.80;99.90
22996;DHT22;11664;49.774;8.650;2023-03-20T08:58:09;10.80;99.90
22996;DHT22;11664;49.774;8.650;2023-03-20T09:00:35;10.80;99.90
22996;DHT22;11664;49.774;8.650;2023-03-20T09:03:00;10.80;99.90
22996;DHT22;11664;49.774;8.650;2023-03-20T09:05:38;10.80;99.90
22996;DHT22;11664;49.774;8.650;2023-03-20T09:08:03;10.80;99.90
22996;DHT22;11664;49.774;8.650;2023-03-20T09:10:35;10.70;99.90
22996;DHT22;11664;49.774;8.650;2023-03-20T09:13:01;10.60;99.90
22996;DHT22;11664;49.774;8.650;2023-03-20T09:15:35;10.60;99.90
22996;DHT22;11664;49.774;8.650;2023-03-20T09:18:01;10.60;99.90
22996;DHT22;11664;49.774;8.650;2023-03-20T09:20:26;10.60;99.90
22996;DHT22;11664;49.774;8.650;2023-03-20T09:22:55;10.60;99.90
22996;DHT22;11664;49.774;8.650;2023-03-20T09:25:21;10.60;99.90
22996;DHT22;11664;49.774;8.650;2023-03-20T09:27:58;10.60;99.90
22996;DHT22;11664;49.774;8.650;2023-03-20T09:30:27;10.60;99.90
22996;DHT22;11664;49.774;8.650;2023-03-20T09:32:52;10.60;99.90
22996;DHT22;11664;49.774;8.650;2023-03-20T09:35:30;10.70;99.90
22996;DHT22;11664;49.774;8.650;2023-03-20T09:38:03;10.70;99.90
22996;DHT22;11664;49.774;8.650;2023-03-20T09:40:56;10.80;99.90
22996;DHT22;11664;49.774;8.650;2023-03-20T09:43:53;11.00;99.90
22996;DHT22;11664;49.774;8.650;2023-03-20T09:55:21;11.90;99.90
22996;DHT22;11664;49.774;8.650;2023-03-20T09:57:57;12.00;99.90
22996;DHT22;11664;49.774;8.650;2023-03-20T10:00:27;11.90;99.90
22996;DHT22;11664;49.774;8.650;2023-03-20T10:03:01;12.00;99.90
22996;DHT22;11664;49.774;8.650;2023-03-20T10:05:57;12.10;99.90
22996;DHT22;11664;49.774;8.650;2023-03-20T10:08:28;12.20;99.90
22996;DHT22;11664;49.774;8.650;2023-03-20T10:17:14;12.50;99.90
22996;DHT22;11664;49.774;8.650;2023-03-20T10:22:48;12.50;99.90
22996;DHT22;11664;49.774;8.650;2023-03-20T10:25:29;12.70;99.90
22996;DHT22;11664;49.774;8.650;2023-03-20T10:27:59;12.80;99.90
22996;DHT22;11664;49.774;8.650;2023-03-20T10:36:45;13.10;99.90
22996;DHT22;11664;49.774;8.650;2023-03-20T10:39:56;13.30;99.90
22996;DHT22;11664;49.774;8.650;2023-03-20T10:42:44;13.20;99.90
22996;DHT22;11664;49.774;8.650;2023-03-20T10:45:35;13.20;99.90
22996;DHT22;11664;49.774;8.650;2023-03-20T10:48:38;13.00;99.90
22996;DHT22;11664;49.774;8.650;2023-03-20T10:51:23;13.00;99.90
22996;DHT22;11664;49.774;8.650;2023-03-20T10:53:55;12.90;99.90
22996;DHT22;11664;49.774;8.650;2023-03-20T10:56:46;12.80;99.90
22996;DHT22;11664;49.774;8.650;2023-03-20T11:01:48;12.60;99.90
22996;DHT22;11664;49.774;8.650;2023-03-20T11:04:23;12.50;99.90
22996;DHT22;11664;49.774;8.650;2023-03-20T11:07:18;12.50;99.90
22996;DHT22;11664;49.774;8.650;2023-03-20T11:12:46;12.50;99.90
22996;DHT22;11664;49.774;8.650;2023-03-20T11:15:27;12.50;99.90
22996;DHT22;11664;49.774;8.650;2023-03-20T11:17:56;12.60;99.90
22996;DHT22;11664;49.774;8.650;2023-03-20T11:20:56;12.60;99.90
22996;DHT22;11664;49.774;8.650;2023-03-20T11:23:32;12.90;99.90
22996;DHT22;11664;49.774;8.650;2023-03-20T11:26:00;13.10;99.90
22996;DHT22;11664;49.774;8.650;2023-03-20T11:39:30;14.70;99.90
22996;DHT22;11664;49.774;8.650;2023-03-20T11:42:24;15.00;99.90
22996;DHT22;11664;49.774;8.650;2023-03-20T11:48:45;14.80;99.90
22996;DHT22;11664;49.774;8.650;2023-03-20T11:51:19;14.50;99.90
22996;DHT22;11664;49.774;8.650;2023-03-20T11:56:19;14.30;99.90
22996;DHT22;11664;49.774;8.650;2023-03-20T11:59:15;14.20;99.90
22996;DHT22;11664;49.774;8.650;2023-03-20T12:01:51;14.20;99.90
22996;DHT22;11664;49.774;8.650;2023-03-20T12:04:42;14.20;99.90
22996;DHT22;11664;49.774;8.650;2023-03-20T12:07:32;14.20;99.90
22996;DHT22;11664;49.774;8.650;2023-03-20T12:10:39;14.20;99.90
22996;DHT22;11664;49.774;8.650;2023-03-20T12:16:28;14.30;99.90
22996;DHT22;11664;49.774;8.650;2023-03-20T12:19:05;14.20;99.90
22996;DHT22;11664;49.774;8.650;2023-03-20T12:22:07;14.30;99.90
22996;DHT22;11664;49.774;8.650;2023-03-20T12:27:36;14.70;99.90
22996;DHT22;11664;49.774;8.650;2023-03-20T12:33:11;15.30;99.90
22996;DHT22;11664;49.774;8.650;2023-03-20T12:35:43;15.30;99.90
22996;DHT22;11664;49.774;8.650;2023-03-20T12:41:10;15.30;99.90
22996;DHT22;11664;49.774;8.650;2023-03-20T12:52:21;15.00;99.90
22996;DHT22;11664;49.774;8.650;2023-03-20T13:06:58;14.90;99.90
22996;DHT22;11664;49.774;8.650;2023-03-20T13:12:49;14.70;99.90
22996;DHT22;11664;49.774;8.650;2023-03-20T13:15:34;14.80;99.90
22996;DHT22;11664;49.774;8.650;2023-03-20T13:21:08;14.80;99.90
22996;DHT22;11664;49.774;8.650;2023-03-20T13:26:33;14.70;99.90
22996;DHT22;11664;49.774;8.650;2023-03-20T13:32:37;14.80;99.90
22996;DHT22;11664;49.774;8.650;2023-03-20T13:38:17;14.90;99.90
22996;DHT22;11664;49.774;8.650;2023-03-20T13:40:57;14.80;99.90
22996;DHT22;11664;49.774;8.650;2023-03-20T13:43:49;14.70;99.90
22996;DHT22;11664;49.774;8.650;2023-03-20T13:46:44;14.60;99.90
22996;DHT22;11664;49.774;8.650;2023-03-20T13:52:21;14.30;99.90
22996;DHT22;11664;49.774;8.650;2023-03-20T14:03:54;14.60;99.90
22996;DHT22;11664;49.774;8.650;2023-03-20T14:09:40;14.90;99.90
22996;DHT22;11664;49.774;8.650;2023-03-20T14:12:08;15.20;99.90
22996;DHT22;11664;49.774;8.650;2023-03-20T14:15:09;15.30;99.90
22996;DHT22;11664;49.774;8.650;2023-03-20T14:17:42;15.50;99.00
22996;DHT22;11664;49.774;8.650;2023-03-20T14:20:27;15.40;99.80
22996;DHT22;11664;49.774;8.650;2023-03-20T14:23:01;15.40;98.90
22996;DHT22;11664;49.774;8.650;2023-03-20T14:25:42;15.40;97.90
22996;DHT22;11664;49.774;8.650;2023-03-20T14:30:40;15.20;97.80
22996;DHT22;11664;49.774;8.650;2023-03-20T14:36:18;14.90;98.00
22996;DHT22;11664;49.774;8.650;2023-03-20T14:39:04;14.90;97.80
22996;DHT22;11664;49.774;8.650;2023-03-20T14:50:19;14.90;95.20
22996;DHT22;11664;49.774;8.650;2023-03-20T14:53:23;14.90;96.80
22996;DHT22;11664;49.774;8.650;2023-03-20T14:56:06;14.80;95.80
22996;DHT22;11664;49.774;8.650;2023-03-20T14:58:45;15.10;96.60
22996;DHT22;11664;49.774;8.650;2023-03-20T15:03:57;15.70;95.20
22996;DHT22;11664;49.774;8.650;2023-03-20T15:06:32;16.00;94.70
22996;DHT22;11664;49.774;8.650;2023-03-20T15:09:06;16.10;91.60
22996;DHT22;11664;49.774;8.650;2023-03-20T15:11:33;16.00;92.20
22996;DHT22;11664;49.774;8.650;2023-03-20T15:14:09;15.90;92.30
22996;DHT22;11664;49.774;8.650;2023-03-20T15:16:36;16.00;93.10
22996;DHT22;11664;49.774;8.650;2023-03-20T15:19:07;16.10;92.80
22996;DHT22;11664;49.774;8.650;2023-03-20T15:21:40;16.30;92.30
22996;DHT22;11664;49.774;8.650;2023-03-20T15:24:23;16.10;92.60
22996;DHT22;11664;49.774;8.650;2023-03-20T15:27:00;16.00;93.10
22996;DHT22;11664;49.774;8.650;2023-03-20T15:29:33;15.90;93.00
22996;DHT22;11664;49.774;8.650;2023-03-20T15:31:59;15.70;92.40
22996;DHT22;11664;49.774;8.650;2023-03-20T15:34:29;15.50;92.60
22996;DHT22;11664;49.774;8.650;2023-03-20T15:36:57;15.20;92.90
22996;DHT22;11664;49.774;8.650;2023-03-20T15:39:42;14.90;93.10
22996;DHT22;11664;49.774;8.650;2023-03-20T15:42:12;14.60;94.10
22996;DHT22;11664;49.774;8.650;2023-03-20T15:44:53;14.50;94.80
22996;DHT22;11664;49.774;8.650;2023-03-20T15:47:21;14.30;94.50
22996;DHT22;11664;49.774;8.650;2023-03-20T15:49:56;14.20;94.40
22996;DHT22;11664;49.774;8.650;2023-03-20T15:52:35;14.10;94.70
22996;DHT22;11664;49.774;8.650;2023-03-20T15:55:06;14.00;95.20
22996;DHT22;11664;49.774;8.650;2023-03-20T15:57:38;13.80;95.30
22996;DHT22;11664;49.774;8.650;2023-03-20T16:00:12;13.70;96.00
22996;DHT22;11664;49.774;8.650;2023-03-20T16:02:39;13.70;95.70
22996;DHT22;11664;49.774;8.650;2023-03-20T16:05:09;13.60;95.50
22996;DHT22;11664;49.774;8.650;2023-03-20T16:07:43;13.60;94.80
22996;DHT22;11664;49.774;8.650;2023-03-20T16:10:29;13.40;95.60
22996;DHT22;11664;49.774;8.650;2023-03-20T16:13:06;13.40;95.80
22996;DHT22;11664;49.774;8.650;2023-03-20T16:15:35;13.40;95.90
22996;DHT22;11664;49.774;8.650;2023-03-20T16:18:02;13.40;96.00
22996;DHT22;11664;49.774;8.650;2023-03-20T16:20:33;13.40;95.80
22996;DHT22;11664;49.774;8.650;2023-03-20T16:23:04;13.30;95.70
22996;DHT22;11664;49.774;8.650;2023-03-20T16:25:43;13.30;95.80
22996;DHT22;11664;49.774;8.650;2023-03-20T16:28:13;13.20;94.30
22996;DHT22;11664;49.774;8.650;2023-03-20T16:30:39;13.10;94.50
22996;DHT22;11664;49.774;8.650;2023-03-20T16:33:10;13.00;94.10
22996;DHT22;11664;49.774;8.650;2023-03-20T16:35:41;12.90;93.50
22996;DHT22;11664;49.774;8.650;2023-03-20T16:44:23;12.70;92.70
22996;DHT22;11664;49.774;8.650;2023-03-20T16:47:15;12.50;92.80
22996;DHT22;11664;49.774;8.650;2023-03-20T16:50:10;12.40;92.80
22996;DHT22;11664;49.774;8.650;2023-03-20T16:52:56;12.40;93.10
22996;DHT22;11664;49.774;8.650;2023-03-20T16:55:29;12.30;93.20
22996;DHT22;11664;49.774;8.650;2023-03-20T16:58:05;12.30;93.70
22996;DHT22;11664;49.774;8.650;2023-03-20T17:00:44;12.20;94.20
22996;DHT22;11664;49.774;8.650;2023-03-20T17:03:26;12.20;95.10
22996;DHT22;11664;49.774;8.650;2023-03-20T17:06:06;12.10;95.40
22996;DHT22;11664;49.774;8.650;2023-03-20T17:08:44;12.10;96.50
22996;DHT22;11664;49.774;8.650;2023-03-20T17:11:22;12.00;96.90
22996;DHT22;11664;49.774;8.650;2023-03-20T17:13:50;12.00;97.70
22996;DHT22;11664;49.774;8.650;2023-03-20T17:16:21;11.90;98.60
22996;DHT22;11664;49.774;8.650;2023-03-20T17:19:13;11.80;99.50
22996;DHT22;11664;49.774;8.650;2023-03-20T17:21:45;11.70;99.90
22996;DHT22;11664;49.774;8.650;2023-03-20T17:24:12;11.70;99.90
22996;DHT22;11664;49.774;8.650;2023-03-20T17:26:44;11.70;99.90
22996;DHT22;11664;49.774;8.650;2023-03-20T17:29:22;11.60;99.90
22996;DHT22;11664;49.774;8.650;2023-03-20T17:31:50;11.60;99.90
22996;DHT22;11664;49.774;8.650;2023-03-20T17:34:16;11.60;99.90
22996;DHT22;11664;49.774;8.650;2023-03-20T17:36:48;11.50;99.90
22996;DHT22;11664;49.774;8.650;2023-03-20T17:39:26;11.50;99.90
22996;DHT22;11664;49.774;8.650;2023-03-20T17:41:51;11.50;99.90
22996;DHT22;11664;49.774;8.650;2023-03-20T17:44:29;11.40;99.90
22996;DHT22;11664;49.774;8.650;2023-03-20T17:46:54;11.40;99.90
22996;DHT22;11664;49.774;8.650;2023-03-20T17:49:20;11.30;99.90
22996;DHT22;11664;49.774;8.650;2023-03-20T17:51:57;11.30;99.90
22996;DHT22;11664;49.774;8.650;2023-03-20T17:54:22;11.30;99.90
22996;DHT22;11664;49.774;8.650;2023-03-20T17:56:48;11.30;99.90
22996;DHT22;11664;49.774;8.650;2023-03-20T17:59:13;11.20;99.90
22996;DHT22;11664;49.774;8.650;2023-03-20T18:01:39;11.20;99.90
22996;DHT22;11664;49.774;8.650;2023-03-20T18:04:11;11.20;99.90
22996;DHT22;11664;49.774;8.650;2023-03-20T18:06:42;11.10;99.90
22996;DHT22;11664;49.774;8.650;2023-03-20T18:09:10;11.10;99.90
22996;DHT22;11664;49.774;8.650;2023-03-20T18:11:52;11.10;99.90
22996;DHT22;11664;49.774;8.650;2023-03-20T18:14:21;11.10;99.90
22996;DHT22;11664;49.774;8.650;2023-03-20T18:16:47;11.10;99.90
22996;DHT22;11664;49.774;8.650;2023-03-20T18:19:28;11.00;99.90
22996;DHT22;11664;49.774;8.650;2023-03-20T18:21:58;11.00;99.90
22996;DHT22;11664;49.774;8.650;2023-03-20T18:24:26;11.00;99.90
22996;DHT22;11664;49.774;8.650;2023-03-20T18:26:55;11.00;99.90
22996;DHT22;11664;49.774;8.650;2023-03-20T18:29:21;11.00;99.90
22996;DHT22;11664;49.774;8.650;2023-03-20T18:31:47;10.90;99.90
22996;DHT22;11664;49.774;8.650;2023-03-20T18:34:16;10.90;99.90
22996;DHT22;11664;49.774;8.650;2023-03-20T18:36:45;10.90;99.90
22996;DHT22;11664;49.774;8.650;2023-03-20T18:39:18;10.90;99.90
22996;DHT22;11664;49.774;8.650;2023-03-20T18:41:56;10.90;99.90
22996;DHT22;11664;49.774;8.650;2023-03-20T18:44:22;10.80;99.90
22996;DHT22;11664;49.774;8.650;2023-03-20T18:46:47;10.80;99.90
22996;DHT22;11664;49.774;8.650;2023-03-20T18:49:35;10.80;99.90
22996;DHT22;11664;49.774;8.650;2023-03-20T18:52:09;10.80;99.90
22996;DHT22;11664;49.774;8.650;2023-03-20T18:54:44;10.80;99.90
22996;DHT22;11664;49.774;8.650;2023-03-20T18:57:16;10.80;99.90
22996;DHT22;11664;49.774;8.650;2023-03-20T18:59:45;10.80;99.90
22996;DHT22;11664;49.774;8.650;2023-03-20T19:02:13;10.70;99.90
22996;DHT22;11664;49.774;8.650;2023-03-20T19:04:39;10.70;99.90
22996;DHT22;11664;49.774;8.650;2023-03-20T19:07:20;10.70;99.90
22996;DHT22;11664;49.774;8.650;2023-03-20T19:10:04;10.70;99.90
22996;DHT22;11664;49.774;8.650;2023-03-20T19:12:30;10.70;99.90